Time;durP1;ratioP1;P1;durP2;ratioP2;P2;SDS_P1;SDS_P2;PMS_P1;PMS_P2;Temp;Humidity;BMP_temperature;BMP_pressure;BME280_temperature;BME280_humidity;BME280_pressure;Samples;Min_cycle;Max_cycle;Signal;HPM_P1;HPM_P2
2021/09/16 00:00:14;;;;;;;14.73;8.50;;;;;;;;;;6232273;28;20045;-70
2021/09/16 00:03:15;;;;;;;13.15;8.23;;;;;;;;;;6232249;28;20591;-69
2021/09/16 00:06:17;;;;;;;12.18;7.72;;;;;;;;;;6236314;28;20045;-69
2021/09/16 00:09:19;;;;;;;12.88;8.65;;;;;;;;;;6244234;28;20538;-70
2021/09/16 00:12:23;;;;;;;17.50;8.77;;;;;;;;;;6238683;28;20042;-68
2021/09/16 00:15:25;;;;;;;;;;;;;;;;;;6242165;28;20058;-70
2021/09/16 00:18:27;;;;;;;18.52;9.00;;;;;;;;;;6238149;28;19967;-69
2021/09/16 00:21:28;;;;;;;13.02;9.23;;;;;;;;;;6236779;28;20042;-69
2021/09/16 00:24:30;;;;;;;16.77;8.70;;;;;;;;;;6244252;28;20076;-72
2021/09/16 00:27:33;;;;;;;14.90;9.30;;;;;;;;;;6234611;28;20044;-75
2021/09/16 00:30:35;;;;;;;;;;;;;;;;;;6238494;28;20057;-71
2021/09/16 00:33:37;;;;;;;11.90;8.90;;;;;;;;;;6235312;28;20403;-69
2021/09/16 00:36:38;;;;;;;11.77;8.88;;;;;;;;;;6237280;28;20100;-70
2021/09/16 00:39:40;;;;;;;15.18;9.55;;;;;;;;;;6243522;28;21067;-68
2021/09/16 00:42:44;;;;;;;12.23;8.63;;;;;;;;;;6240514;28;20076;-68
2021/09/16 00:45:46;;;;;;;11.18;8.40;;;;;;;;;;6235179;28;20050;-71
2021/09/16 00:48:48;;;;;;;16.17;9.88;;;;;;;;;;6241537;28;20045;-69
2021/09/16 00:51:50;;;;;;;11.55;8.73;;;;;;;;;;6238858;28;20045;-69
2021/09/16 00:54:54;;;;;;;12.80;8.93;;;;;;;;;;6246699;28;20041;-71
2021/09/16 00:58:01;;;;;;;16.40;9.48;;;;;;;;;;6246795;28;20058;-69
2021/09/16 01:01:02;;;;;;;15.63;9.85;;;;;;;;;;6244972;28;20048;-70
2021/09/16 01:04:04;;;;;;;23.75;10.48;;;;;;;;;;6235468;28;20061;-69
2021/09/16 01:07:07;;;;;;;14.75;11.15;;;;;;;;;;6239119;28;20116;-69
2021/09/16 01:10:10;;;;;;;;;;;;;;;;;;6238758;28;20077;-69
2021/09/16 01:13:14;;;;;;;17.15;7.85;;;;;;;;;;6241544;28;19983;-69
2021/09/16 01:16:15;;;;;;;24.45;10.65;;;;;;;;;;6228032;28;20077;-69
2021/09/16 01:19:17;;;;;;;19.60;9.48;;;;;;;;;;6238873;28;20121;-69
2021/09/16 01:22:22;;;;;;;16.48;9.27;;;;;;;;;;6239706;28;20133;-69
2021/09/16 01:25:26;;;;;;;18.58;8.80;;;;;;;;;;6239570;28;20045;-70
2021/09/16 01:28:28;;;;;;;17.20;8.93;;;;;;;;;;6246349;28;20131;-69
2021/09/16 01:31:34;;;;;;;20.98;8.77;;;;;;;;;;6242784;28;20489;-69
2021/09/16 01:34:37;;;;;;;13.93;8.43;;;;;;;;;;6245396;28;20092;-69
2021/09/16 01:37:38;;;;;;;16.58;8.90;;;;;;;;;;6239042;28;20468;-69
2021/09/16 01:40:41;;;;;;;12.95;8.73;;;;;;;;;;6240405;28;20608;-69
2021/09/16 01:43:43;;;;;;;12.38;8.32;;;;;;;;;;6247097;28;20045;-69
2021/09/16 01:46:45;;;;;;;14.23;8.90;;;;;;;;;;6238110;28;20054;-69
2021/09/16 01:49:47;;;;;;;14.40;9.05;;;;;;;;;;6243352;28;20053;-69
2021/09/16 01:52:50;;;;;;;14.63;9.55;;;;;;;;;;6240752;28;20038;-69
2021/09/16 01:55:53;;;;;;;13.95;9.55;;;;;;;;;;6241060;28;20046;-69
2021/09/16 01:58:55;;;;;;;14.15;8.93;;;;;;;;;;6245959;28;20045;-70
2021/09/16 02:01:57;;;;;;;12.38;8.30;;;;;;;;;;6237176;28;20084;-69
2021/09/16 02:04:58;;;;;;;16.75;9.43;;;;;;;;;;6241728;28;20062;-69
2021/09/16 02:08:00;;;;;;;15.15;9.18;;;;;;;;;;6237045;28;20477;-69
2021/09/16 02:11:03;;;;;;;16.05;9.38;;;;;;;;;;6239633;28;20053;-69
2021/09/16 02:14:05;;;;;;;20.00;9.20;;;;;;;;;;6243354;28;20049;-69
2021/09/16 02:17:07;;;;;;;16.25;9.85;;;;;;;;;;6246119;28;20128;-69
2021/09/16 02:20:10;;;;;;;18.80;9.25;;;;;;;;;;6236440;28;20045;-70
2021/09/16 02:23:11;;;;;;;13.33;9.37;;;;;;;;;;6239476;28;20045;-69
2021/09/16 02:26:14;;;;;;;19.33;9.52;;;;;;;;;;6234436;28;20077;-69
2021/09/16 02:29:16;;;;;;;17.85;9.55;;;;;;;;;;6243446;28;20060;-69
2021/09/16 02:32:18;;;;;;;18.27;9.18;;;;;;;;;;6229010;28;20046;-70
2021/09/16 02:35:19;;;;;;;17.33;9.77;;;;;;;;;;6236199;28;20053;-69
2021/09/16 02:38:23;;;;;;;17.08;9.30;;;;;;;;;;6237907;28;20068;-69
2021/09/16 02:41:27;;;;;;;14.63;9.07;;;;;;;;;;6239766;28;20049;-69
2021/09/16 02:44:29;;;;;;;14.55;9.75;;;;;;;;;;6242387;28;20127;-69
2021/09/16 02:47:30;;;;;;;14.13;9.35;;;;;;;;;;6239185;28;20064;-69
2021/09/16 02:50:32;;;;;;;13.45;9.73;;;;;;;;;;6237144;28;20081;-70
2021/09/16 02:53:34;;;;;;;18.90;10.05;;;;;;;;;;6243495;28;20073;-69
2021/09/16 02:56:38;;;;;;;15.15;10.27;;;;;;;;;;6236884;28;20102;-69
2021/09/16 02:59:39;;;;;;;17.60;10.32;;;;;;;;;;6246592;28;20060;-70
2021/09/16 03:02:41;;;;;;;14.70;10.65;;;;;;;;;;6236523;28;20076;-69
2021/09/16 03:05:43;;;;;;;14.45;9.60;;;;;;;;;;6240919;28;20049;-69
2021/09/16 03:08:45;;;;;;;16.52;10.50;;;;;;;;;;6230276;28;20058;-69
2021/09/16 03:11:48;;;;;;;14.48;9.23;;;;;;;;;;6236166;28;20060;-71
2021/09/16 03:14:50;;;;;;;14.57;10.95;;;;;;;;;;6247029;28;20058;-69
2021/09/16 03:17:58;;;;;;;16.83;10.93;;;;;;;;;;6235473;28;20041;-69
2021/09/16 03:21:00;;;;;;;15.65;12.30;;;;;;;;;;6225927;28;20358;-69
2021/09/16 03:24:02;;;;;;;16.33;11.52;;;;;;;;;;6252574;28;20053;-69
2021/09/16 03:27:05;;;;;;;18.25;12.27;;;;;;;;;;6235130;28;20053;-69
2021/09/16 03:30:07;;;;;;;;;;;;;;;;;;6240805;28;20046;-71
2021/09/16 03:33:09;;;;;;;18.17;12.15;;;;;;;;;;6234919;28;20417;-70
2021/09/16 03:36:11;;;;;;;18.50;12.20;;;;;;;;;;6237408;28;20108;-69
2021/09/16 03:39:13;;;;;;;22.00;12.60;;;;;;;;;;6237596;28;20124;-69
2021/09/16 03:42:16;;;;;;;18.60;11.93;;;;;;;;;;6240402;28;20045;-69
2021/09/16 03:45:34;;;;;;;22.02;13.00;;;;;;;;;;6226020;28;20038;-69
2021/09/16 03:48:35;;;;;;;19.40;13.20;;;;;;;;;;6224844;28;20050;-69
2021/09/16 03:51:37;;;;;;;17.92;13.15;;;;;;;;;;6226873;28;20126;-69
2021/09/16 03:54:39;;;;;;;16.15;12.50;;;;;;;;;;6229701;28;20105;-69
2021/09/16 03:57:42;;;;;;;18.05;12.82;;;;;;;;;;6211255;28;20046;-69
2021/09/16 04:00:44;;;;;;;15.77;11.68;;;;;;;;;;6215533;28;21062;-70
2021/09/16 04:03:46;;;;;;;17.05;13.32;;;;;;;;;;6250754;28;20049;-69
2021/09/16 04:06:48;;;;;;;16.48;13.38;;;;;;;;;;6248653;28;20072;-69
2021/09/16 04:09:50;;;;;;;15.40;11.13;;;;;;;;;;6251677;28;20052;-69
2021/09/16 04:12:53;;;;;;;18.05;11.38;;;;;;;;;;6236352;28;20053;-69
2021/09/16 04:15:57;;;;;;;17.08;11.82;;;;;;;;;;6238755;28;20050;-70
2021/09/16 04:18:59;;;;;;;16.00;11.32;;;;;;;;;;6233358;28;20056;-69
2021/09/16 04:22:01;;;;;;;13.63;10.60;;;;;;;;;;6250513;28;20071;-69
2021/09/16 04:25:04;;;;;;;15.32;10.85;;;;;;;;;;6241573;28;20060;-69
2021/09/16 04:28:07;;;;;;;14.05;10.57;;;;;;;;;;6239750;28;20053;-69
2021/09/16 04:31:09;;;;;;;19.13;11.30;;;;;;;;;;6235419;28;20060;-69
2021/09/16 04:34:11;;;;;;;17.55;11.10;;;;;;;;;;6242810;28;20045;-69
2021/09/16 04:37:13;;;;;;;19.33;11.52;;;;;;;;;;6236247;28;20057;-69
2021/09/16 04:40:15;;;;;;;14.52;10.07;;;;;;;;;;6237509;28;20057;-69
2021/09/16 04:43:18;;;;;;;14.65;11.18;;;;;;;;;;6242859;28;20045;-69
2021/09/16 04:46:20;;;;;;;17.75;10.45;;;;;;;;;;6248361;28;20042;-69
2021/09/16 04:49:21;;;;;;;13.68;9.57;;;;;;;;;;6247129;28;20497;-69
2021/09/16 04:52:25;;;;;;;13.20;9.88;;;;;;;;;;6242876;28;20083;-70
2021/09/16 04:55:26;;;;;;;;;;;;;;;;;;6241198;28;20041;-70
2021/09/16 04:58:29;;;;;;;11.82;8.60;;;;;;;;;;6244257;28;19920;-69
2021/09/16 05:01:31;;;;;;;12.75;9.90;;;;;;;;;;6239439;28;20062;-69
2021/09/16 05:04:33;;;;;;;12.70;10.32;;;;;;;;;;6227301;28;20042;-70
2021/09/16 05:07:35;;;;;;;15.70;10.02;;;;;;;;;;6210442;28;20046;-69
2021/09/16 05:10:36;;;;;;;14.73;11.07;;;;;;;;;;6219357;28;20769;-69
2021/09/16 05:13:40;;;;;;;17.45;10.38;;;;;;;;;;6242026;28;20050;-69
2021/09/16 05:16:42;;;;;;;13.98;10.60;;;;;;;;;;6239795;28;20057;-69
2021/09/16 05:19:44;;;;;;;13.70;10.25;;;;;;;;;;6243460;28;20049;-69
2021/09/16 05:22:46;;;;;;;12.77;9.50;;;;;;;;;;6238600;28;20056;-69
2021/09/16 05:25:48;;;;;;;16.50;9.68;;;;;;;;;;6240119;28;20049;-69
2021/09/16 05:28:51;;;;;;;15.45;9.48;;;;;;;;;;6244235;28;20038;-69
2021/09/16 05:31:53;;;;;;;15.35;9.32;;;;;;;;;;6238892;28;20037;-69
2021/09/16 05:34:55;;;;;;;13.15;9.10;;;;;;;;;;6241839;28;20068;-68
2021/09/16 05:37:59;;;;;;;16.20;9.65;;;;;;;;;;6242061;28;20073;-67
2021/09/16 05:41:00;;;;;;;16.67;9.43;;;;;;;;;;6241128;28;20108;-68
2021/09/16 05:44:05;;;;;;;15.68;10.05;;;;;;;;;;6249436;28;20418;-69
2021/09/16 05:47:07;;;;;;;12.57;8.98;;;;;;;;;;6243690;28;20041;-69
2021/09/16 05:50:09;;;;;;;12.25;9.05;;;;;;;;;;6240096;28;20038;-69
2021/09/16 05:53:11;;;;;;;11.65;8.63;;;;;;;;;;6241397;28;20060;-69
2021/09/16 05:56:13;;;;;;;12.18;9.00;;;;;;;;;;6243176;28;20120;-69
2021/09/16 05:59:17;;;;;;;11.98;8.82;;;;;;;;;;6244905;28;20061;-70
2021/09/16 06:02:19;;;;;;;18.30;10.50;;;;;;;;;;6240391;28;20099;-72
2021/09/16 06:05:21;;;;;;;13.38;9.32;;;;;;;;;;6242998;28;20049;-70
2021/09/16 06:08:23;;;;;;;14.35;8.48;;;;;;;;;;6241937;28;20064;-68
2021/09/16 06:11:25;;;;;;;14.20;8.57;;;;;;;;;;6244275;28;20053;-68
2021/09/16 06:14:28;;;;;;;13.93;9.10;;;;;;;;;;6246348;28;20050;-68
2021/09/16 06:17:30;;;;;;;16.40;9.18;;;;;;;;;;6243205;28;20050;-68
2021/09/16 06:20:32;;;;;;;14.35;9.10;;;;;;;;;;6240175;28;20053;-69
2021/09/16 06:23:33;;;;;;;14.38;9.13;;;;;;;;;;6237795;28;20072;-68
2021/09/16 06:26:35;;;;;;;14.20;10.10;;;;;;;;;;6237364;28;20053;-68
2021/09/16 06:29:39;;;;;;;18.77;10.25;;;;;;;;;;6240525;28;20042;-69
2021/09/16 06:32:45;;;;;;;16.02;10.25;;;;;;;;;;6238654;28;20048;-68
2021/09/16 06:35:47;;;;;;;14.80;9.82;;;;;;;;;;6237494;28;20046;-68
2021/09/16 06:38:48;;;;;;;15.57;9.30;;;;;;;;;;6239006;28;20213;-68
2021/09/16 06:41:50;;;;;;;14.45;9.90;;;;;;;;;;6230133;28;20073;-68
2021/09/16 06:44:53;;;;;;;14.48;9.07;;;;;;;;;;6236681;28;20045;-68
2021/09/16 06:47:55;;;;;;;19.05;10.70;;;;;;;;;;6232380;28;20105;-68
2021/09/16 06:50:57;;;;;;;19.77;10.60;;;;;;;;;;6233750;28;20057;-68
2021/09/16 06:53:59;;;;;;;18.13;11.18;;;;;;;;;;6244752;28;20108;-69
2021/09/16 06:57:00;;;;;;;12.23;10.27;;;;;;;;;;6245000;28;20056;-73
2021/09/16 07:00:06;;;;;;;17.33;11.00;;;;;;;;;;6240215;28;20054;-72
2021/09/16 07:03:08;;;;;;;15.27;9.85;;;;;;;;;;6228656;28;20049;-72
2021/09/16 07:06:10;;;;;;;22.67;10.50;;;;;;;;;;6240626;28;20045;-71
2021/09/16 07:09:11;;;;;;;16.63;10.00;;;;;;;;;;6240393;28;20057;-72
2021/09/16 07:12:13;;;;;;;15.02;10.05;;;;;;;;;;6239297;28;20053;-71
2021/09/16 07:15:17;;;;;;;16.55;9.75;;;;;;;;;;6236513;28;20057;-72
2021/09/16 07:18:19;;;;;;;13.65;9.70;;;;;;;;;;6230490;28;20092;-72
2021/09/16 07:21:20;;;;;;;17.33;10.18;;;;;;;;;;6236416;28;20069;-71
2021/09/16 07:24:22;;;;;;;16.40;10.88;;;;;;;;;;6236125;28;20068;-71
2021/09/16 07:27:27;;;;;;;18.42;10.30;;;;;;;;;;6234149;28;20478;-72
2021/09/16 07:30:30;;;;;;;18.52;10.43;;;;;;;;;;6230877;28;20046;-72
2021/09/16 07:33:33;;;;;;;16.52;10.80;;;;;;;;;;6239358;28;20049;-71
2021/09/16 07:36:56;;;;;;;15.80;10.93;;;;;;;;;;6215455;28;20042;-71
2021/09/16 07:39:59;;;;;;;22.50;10.75;;;;;;;;;;6243246;28;20057;-72
2021/09/16 07:43:01;;;;;;;16.30;10.77;;;;;;;;;;6243494;28;20049;-72
2021/09/16 07:46:04;;;;;;;17.42;10.43;;;;;;;;;;6244713;28;20067;-75
2021/09/16 07:49:08;;;;;;;;;;;;;;;;;;6237938;28;20461;-72
2021/09/16 07:52:16;;;;;;;14.75;11.10;;;;;;;;;;6243524;28;20792;-72
2021/09/16 07:55:24;;;;;;;17.70;10.75;;;;;;;;;;6232461;28;20050;-73
2021/09/16 07:58:26;;;;;;;14.23;10.10;;;;;;;;;;6238526;28;20544;-72
2021/09/16 08:01:29;;;;;;;19.88;10.77;;;;;;;;;;6225463;28;20049;-71
2021/09/16 08:04:31;;;;;;;20.25;12.30;;;;;;;;;;6240851;28;20061;-71
2021/09/16 08:07:33;;;;;;;16.83;11.10;;;;;;;;;;6242270;28;20063;-71
2021/09/16 08:10:34;;;;;;;18.83;10.55;;;;;;;;;;6241526;28;20064;-72
2021/09/16 08:13:36;;;;;;;27.40;10.77;;;;;;;;;;6246948;28;20077;-71
2021/09/16 08:16:39;;;;;;;25.30;12.38;;;;;;;;;;6244136;28;20358;-72
2021/09/16 08:19:41;;;;;;;;;;;;;;;;;;6235893;28;20057;-71
2021/09/16 08:22:45;;;;;;;19.33;11.10;;;;;;;;;;6245061;28;20338;-72
2021/09/16 08:25:47;;;;;;;17.42;11.93;;;;;;;;;;6243004;28;20046;-72
2021/09/16 08:28:49;;;;;;;14.00;9.77;;;;;;;;;;6247619;28;20050;-72
2021/09/16 08:31:55;;;;;;;13.85;9.15;;;;;;;;;;6240131;28;20132;-73
2021/09/16 08:34:57;;;;;;;14.82;10.07;;;;;;;;;;6243872;28;20045;-73
2021/09/16 08:37:59;;;;;;;14.65;9.98;;;;;;;;;;6244061;28;20053;-72
2021/09/16 08:41:02;;;;;;;17.92;10.40;;;;;;;;;;6234663;28;20063;-72
2021/09/16 08:44:07;;;;;;;14.68;9.57;;;;;;;;;;6253177;28;20053;-72
2021/09/16 08:47:14;;;;;;;16.20;10.13;;;;;;;;;;6240592;28;20394;-72
2021/09/16 08:50:17;;;;;;;16.63;10.55;;;;;;;;;;6244565;28;20077;-74
2021/09/16 08:53:21;;;;;;;;;;;;;;;;;;6243802;28;20049;-72
2021/09/16 08:56:24;;;;;;;17.10;10.38;;;;;;;;;;6241887;28;20308;-71
2021/09/16 08:59:26;;;;;;;16.83;10.43;;;;;;;;;;6248381;28;20485;-71
2021/09/16 09:02:31;;;;;;;17.38;9.18;;;;;;;;;;6235722;28;20397;-72
2021/09/16 09:05:33;;;;;;;14.02;9.07;;;;;;;;;;6248796;28;20111;-67
2021/09/16 09:08:35;;;;;;;21.33;9.23;;;;;;;;;;6246658;28;20069;-66
2021/09/16 09:11:51;;;;;;;9.82;7.57;;;;;;;;;;6239549;28;20052;-66
2021/09/16 09:14:54;;;;;;;16.42;8.48;;;;;;;;;;6238141;28;20042;-66
2021/09/16 09:18:07;;;;;;;15.13;8.18;;;;;;;;;;6237067;28;20322;-66
2021/09/16 09:21:10;;;;;;;13.63;7.65;;;;;;;;;;6239189;28;20045;-66
2021/09/16 09:24:12;;;;;;;12.60;7.40;;;;;;;;;;6247998;28;20405;-66
2021/09/16 09:27:22;;;;;;;14.20;8.35;;;;;;;;;;6237087;28;20076;-66
2021/09/16 09:30:27;;;;;;;15.15;7.63;;;;;;;;;;6241642;28;20420;-66
2021/09/16 09:33:32;;;;;;;12.52;8.18;;;;;;;;;;6232213;28;20140;-67
2021/09/16 09:36:39;;;;;;;13.27;7.57;;;;;;;;;;6232245;28;20523;-66
2021/09/16 09:39:42;;;;;;;17.88;7.30;;;;;;;;;;6250093;28;20053;-66
2021/09/16 09:42:44;;;;;;;14.77;7.50;;;;;;;;;;6235182;28;20104;-66
2021/09/16 09:46:01;;;;;;;14.05;7.80;;;;;;;;;;6237821;28;20038;-67
2021/09/16 09:49:06;;;;;;;15.35;8.00;;;;;;;;;;6242076;28;20061;-66
2021/09/16 09:52:08;;;;;;;14.27;7.70;;;;;;;;;;6230018;28;20049;-66
2021/09/16 09:55:12;;;;;;;14.68;7.72;;;;;;;;;;6231417;28;20510;-64
2021/09/16 09:58:15;;;;;;;16.05;7.53;;;;;;;;;;6234398;28;20046;-64
2021/09/16 10:01:34;;;;;;;14.60;7.47;;;;;;;;;;6231846;28;20049;-64
2021/09/16 10:04:37;;;;;;;13.88;7.15;;;;;;;;;;6242066;28;20053;-64
2021/09/16 10:07:40;;;;;;;14.20;7.22;;;;;;;;;;6231580;28;20054;-64
2021/09/16 10:10:44;;;;;;;11.75;7.13;;;;;;;;;;6237491;28;20448;-64
2021/09/16 10:13:47;;;;;;;13.70;7.35;;;;;;;;;;6244556;28;20051;-64
2021/09/16 10:16:49;;;;;;;10.60;6.77;;;;;;;;;;6235182;28;20053;-65
2021/09/16 10:19:52;;;;;;;10.15;7.20;;;;;;;;;;6243653;28;20486;-64
2021/09/16 10:22:59;;;;;;;11.90;7.28;;;;;;;;;;6232041;28;20096;-64
2021/09/16 10:26:04;;;;;;;13.20;6.90;;;;;;;;;;6235120;28;20095;-64
2021/09/16 10:29:08;;;;;;;11.73;6.20;;;;;;;;;;6236376;28;20501;-64
2021/09/16 10:32:38;;;;;;;13.73;7.03;;;;;;;;;;6236395;28;20080;-64
2021/09/16 10:35:44;;;;;;;15.57;7.13;;;;;;;;;;6223693;28;20831;-64
2021/09/16 10:38:47;;;;;;;12.85;6.70;;;;;;;;;;6232330;28;20359;-63
2021/09/16 10:41:48;;;;;;;;;;;;;;;;;;6230366;28;20054;-63
2021/09/16 10:45:05;;;;;;;11.75;6.22;;;;;;;;;;6234671;28;20001;-64
2021/09/16 10:48:27;;;;;;;14.10;6.60;;;;;;;;;;6227929;28;20626;-64
2021/09/16 10:51:42;;;;;;;11.43;6.18;;;;;;;;;;6229958;28;20060;-64
2021/09/16 10:54:48;;;;;;;14.25;5.85;;;;;;;;;;6235672;28;20049;-65
2021/09/16 10:57:50;;;;;;;13.13;5.22;;;;;;;;;;6234975;28;20076;-65
2021/09/16 11:00:53;;;;;;;8.75;5.35;;;;;;;;;;6212426;28;20593;-64
2021/09/16 11:04:01;;;;;;;11.27;5.93;;;;;;;;;;6231739;28;20060;-65
2021/09/16 11:07:04;;;;;;;10.40;5.45;;;;;;;;;;6218940;28;20046;-65
2021/09/16 11:10:35;;;;;;;11.95;5.38;;;;;;;;;;6232193;28;20109;-64
2021/09/16 11:13:49;;;;;;;15.20;6.13;;;;;;;;;;6229853;28;20068;-65
2021/09/16 11:16:57;;;;;;;10.23;4.88;;;;;;;;;;6229152;28;20042;-64
2021/09/16 11:20:00;;;;;;;9.88;5.03;;;;;;;;;;6239328;28;20164;-65
2021/09/16 11:23:04;;;;;;;15.48;6.00;;;;;;;;;;6231489;28;20077;-66
2021/09/16 11:26:06;;;;;;;10.32;5.43;;;;;;;;;;6234804;28;20048;-65
2021/09/16 11:29:09;;;;;;;11.57;5.55;;;;;;;;;;6238728;28;20049;-66
2021/09/16 11:32:12;;;;;;;9.18;5.40;;;;;;;;;;6221817;28;20143;-66
2021/09/16 11:35:15;;;;;;;12.87;5.73;;;;;;;;;;6222575;28;20126;-65
2021/09/16 11:38:19;;;;;;;11.20;5.88;;;;;;;;;;6228894;28;20474;-64
2021/09/16 11:41:27;;;;;;;10.98;6.20;;;;;;;;;;6223679;28;20042;-64
2021/09/16 11:44:29;;;;;;;14.68;6.40;;;;;;;;;;6230884;28;20058;-64
2021/09/16 11:47:31;;;;;;;14.45;6.07;;;;;;;;;;6220487;28;20052;-64
2021/09/16 11:50:34;;;;;;;14.25;7.28;;;;;;;;;;6223307;28;20061;-64
2021/09/16 11:53:37;;;;;;;;;;;;;;;;;;6234286;28;20046;-64
2021/09/16 11:56:39;;;;;;;11.50;7.03;;;;;;;;;;6219263;28;19964;-64
2021/09/16 11:59:40;;;;;;;13.00;6.93;;;;;;;;;;6238933;28;20092;-64
2021/09/16 12:02:46;;;;;;;15.73;7.85;;;;;;;;;;6219596;28;20085;-64
2021/09/16 12:05:49;;;;;;;12.07;8.30;;;;;;;;;;6217826;28;20057;-65
2021/09/16 12:08:53;;;;;;;;;;;;;;;;;;6241472;28;20061;-64
2021/09/16 12:12:00;;;;;;;24.98;15.48;;;;;;;;;;6237323;28;19928;-64
2021/09/16 12:15:02;;;;;;;16.70;8.88;;;;;;;;;;6241986;28;20056;-67
2021/09/16 12:18:04;;;;;;;14.20;8.48;;;;;;;;;;6233864;28;20046;-67
2021/09/16 12:21:07;;;;;;;15.43;8.40;;;;;;;;;;6230864;28;20053;-66
2021/09/16 12:24:12;;;;;;;13.30;8.93;;;;;;;;;;6242040;28;20047;-67
2021/09/16 12:27:14;;;;;;;15.25;8.15;;;;;;;;;;6227654;28;20053;-67
2021/09/16 12:30:18;;;;;;;17.73;8.35;;;;;;;;;;6231018;28;20528;-67
2021/09/16 12:33:41;;;;;;;17.23;9.05;;;;;;;;;;6219456;28;20045;-67
2021/09/16 12:36:51;;;;;;;19.17;9.50;;;;;;;;;;6216448;28;20119;-66
2021/09/16 12:39:54;;;;;;;20.70;10.68;;;;;;;;;;6223383;28;20129;-67
2021/09/16 12:43:04;;;;;;;16.98;10.32;;;;;;;;;;6231530;28;20042;-67
2021/09/16 12:46:06;;;;;;;18.40;11.88;;;;;;;;;;6214708;28;20061;-68
2021/09/16 12:49:08;;;;;;;17.50;10.82;;;;;;;;;;6235138;28;20049;-67
2021/09/16 12:52:14;;;;;;;17.95;11.32;;;;;;;;;;6249526;28;20056;-68
2021/09/16 12:55:17;;;;;;;23.55;11.80;;;;;;;;;;6239229;28;20484;-68
2021/09/16 12:58:19;;;;;;;16.92;10.60;;;;;;;;;;6241600;28;20057;-67
2021/09/16 13:01:32;;;;;;;19.00;10.38;;;;;;;;;;6236097;28;20053;-68
2021/09/16 13:04:46;;;;;;;;;;;;;;;;;;6242236;28;20101;-68
2021/09/16 13:08:05;;;;;;;17.13;9.07;;;;;;;;;;6239439;28;19926;-68
2021/09/16 13:11:21;;;;;;;14.05;8.23;;;;;;;;;;6247027;28;20053;-68
2021/09/16 13:14:22;;;;;;;14.60;7.35;;;;;;;;;;6249463;28;20045;-68
2021/09/16 13:17:24;;;;;;;14.50;7.70;;;;;;;;;;6240144;28;20108;-68
2021/09/16 13:20:26;;;;;;;14.02;7.80;;;;;;;;;;6238376;28;20073;-69
2021/09/16 13:23:28;;;;;;;15.43;7.28;;;;;;;;;;6250229;28;20405;-68
2021/09/16 13:26:31;;;;;;;14.10;6.45;;;;;;;;;;6246645;28;20045;-69
2021/09/16 13:29:33;;;;;;;9.55;5.38;;;;;;;;;;6237802;28;20053;-68
2021/09/16 13:32:35;;;;;;;12.55;6.15;;;;;;;;;;6250609;28;20053;-68
2021/09/16 13:35:37;;;;;;;11.82;5.85;;;;;;;;;;6236489;28;20047;-69
2021/09/16 13:38:38;;;;;;;7.95;5.35;;;;;;;;;;6240766;28;20050;-68
2021/09/16 13:41:42;;;;;;;10.43;6.28;;;;;;;;;;6231628;28;20191;-68
2021/09/16 13:44:43;;;;;;;10.18;5.80;;;;;;;;;;6219969;28;20185;-68
2021/09/16 13:47:46;;;;;;;11.80;5.75;;;;;;;;;;6234166;28;20060;-68
2021/09/16 13:50:48;;;;;;;8.35;5.22;;;;;;;;;;6225407;28;20045;-68
2021/09/16 13:53:49;;;;;;;12.03;5.20;;;;;;;;;;6226897;28;20046;-68
2021/09/16 13:56:52;;;;;;;6.47;4.20;;;;;;;;;;6227691;28;20077;-68
2021/09/16 13:59:54;;;;;;;10.05;4.25;;;;;;;;;;6234222;28;20046;-68
2021/09/16 14:02:56;;;;;;;10.10;4.53;;;;;;;;;;6219655;28;20065;-69
2021/09/16 14:05:57;;;;;;;6.10;4.38;;;;;;;;;;6231242;28;20058;-68
2021/09/16 14:08:59;;;;;;;9.45;4.80;;;;;;;;;;6228007;28;20050;-68
2021/09/16 14:12:02;;;;;;;7.55;3.78;;;;;;;;;;6224606;28;20061;-67
2021/09/16 14:15:05;;;;;;;7.25;4.05;;;;;;;;;;6223677;28;20038;-68
2021/09/16 14:18:06;;;;;;;;;;;;;;;;;;6210103;28;20112;-69
2021/09/16 14:21:10;;;;;;;9.77;4.20;;;;;;;;;;6222285;28;20068;-68
2021/09/16 14:24:11;;;;;;;8.38;4.50;;;;;;;;;;6212325;28;20140;-68
2021/09/16 14:27:14;;;;;;;7.18;4.15;;;;;;;;;;6220413;28;20076;-68
2021/09/16 14:30:16;;;;;;;6.57;3.80;;;;;;;;;;6209622;28;20046;-69
2021/09/16 14:33:21;;;;;;;6.55;4.13;;;;;;;;;;6214776;28;20054;-68
2021/09/16 14:36:22;;;;;;;8.65;3.85;;;;;;;;;;6246907;28;20073;-69
2021/09/16 14:39:24;;;;;;;7.47;3.83;;;;;;;;;;6250220;28;20898;-68
2021/09/16 14:42:28;;;;;;;6.93;4.20;;;;;;;;;;6240331;28;20061;-68
2021/09/16 14:45:31;;;;;;;11.50;6.78;;;;;;;;;;6238237;28;20045;-71
2021/09/16 14:48:33;;;;;;;11.98;7.53;;;;;;;;;;6235680;28;20099;-68
2021/09/16 14:51:35;;;;;;;13.30;9.40;;;;;;;;;;6228825;28;20041;-68
2021/09/16 14:54:37;;;;;;;14.60;8.90;;;;;;;;;;6247120;28;20475;-69
2021/09/16 14:57:40;;;;;;;17.20;9.03;;;;;;;;;;6237355;28;20045;-68
2021/09/16 15:00:41;;;;;;;14.95;7.82;;;;;;;;;;6216021;28;20057;-69
2021/09/16 15:03:43;;;;;;;14.95;7.45;;;;;;;;;;6220029;28;20061;-68
2021/09/16 15:06:45;;;;;;;17.13;10.60;;;;;;;;;;6216163;28;20069;-70
2021/09/16 15:09:47;;;;;;;17.10;10.77;;;;;;;;;;6213408;28;20058;-69
2021/09/16 15:12:50;;;;;;;24.33;11.45;;;;;;;;;;6216673;28;20053;-71
2021/09/16 15:15:53;;;;;;;22.90;11.95;;;;;;;;;;6213755;28;20053;-68
2021/09/16 15:18:55;;;;;;;19.52;11.35;;;;;;;;;;6219898;28;20058;-70
2021/09/16 15:21:56;;;;;;;21.03;11.27;;;;;;;;;;6208468;28;20060;-69
2021/09/16 15:25:02;;;;;;;16.98;10.68;;;;;;;;;;6213002;28;20458;-69
2021/09/16 15:28:06;;;;;;;22.15;11.20;;;;;;;;;;6207977;28;20046;-69
2021/09/16 15:31:08;;;;;;;19.73;10.38;;;;;;;;;;6214548;28;20121;-68
2021/09/16 15:34:10;;;;;;;18.98;10.43;;;;;;;;;;6212064;28;20058;-68
2021/09/16 15:37:11;;;;;;;21.98;10.98;;;;;;;;;;6210020;28;20092;-69
2021/09/16 15:40:14;;;;;;;22.92;10.35;;;;;;;;;;6212876;28;20458;-71
2021/09/16 15:43:17;;;;;;;23.27;11.47;;;;;;;;;;6208071;28;20042;-69
2021/09/16 15:46:19;;;;;;;21.20;10.73;;;;;;;;;;6205827;28;20481;-69
2021/09/16 15:49:20;;;;;;;21.67;11.32;;;;;;;;;;6208547;28;20050;-70
2021/09/16 15:52:22;;;;;;;20.45;13.35;;;;;;;;;;6201070;28;20054;-69
2021/09/16 15:55:24;;;;;;;73.23;57.47;;;;;;;;;;6207632;28;20073;-69
2021/09/16 15:58:28;;;;;;;19.93;11.80;;;;;;;;;;6209049;28;20065;-69
2021/09/16 16:01:30;;;;;;;22.30;11.90;;;;;;;;;;6198595;28;20449;-69
2021/09/16 16:04:32;;;;;;;17.20;11.93;;;;;;;;;;6212626;28;20046;-69
2021/09/16 16:07:33;;;;;;;18.38;12.88;;;;;;;;;;6199896;28;20057;-69
2021/09/16 16:10:35;;;;;;;28.42;12.20;;;;;;;;;;6212641;28;20054;-69
2021/09/16 16:13:39;;;;;;;26.25;12.73;;;;;;;;;;6209460;28;20148;-69
2021/09/16 16:16:40;;;;;;;18.63;11.45;;;;;;;;;;6204793;28;20113;-69
2021/09/16 16:19:42;;;;;;;20.10;11.32;;;;;;;;;;6214865;28;20046;-69
2021/09/16 16:22:45;;;;;;;19.38;10.82;;;;;;;;;;6209945;28;20324;-69
2021/09/16 16:25:47;;;;;;;19.85;11.77;;;;;;;;;;6218634;28;20047;-72
2021/09/16 16:28:52;;;;;;;24.80;12.05;;;;;;;;;;6221786;28;20422;-69
2021/09/16 16:31:57;;;;;;;21.50;10.88;;;;;;;;;;6222562;28;20489;-69
2021/09/16 16:35:03;;;;;;;20.02;11.88;;;;;;;;;;6223783;28;20045;-70
2021/09/16 16:38:05;;;;;;;19.83;10.20;;;;;;;;;;6213725;28;20050;-68
2021/09/16 16:41:07;;;;;;;19.63;10.93;;;;;;;;;;6233347;28;20049;-69
2021/09/16 16:44:10;;;;;;;17.25;10.05;;;;;;;;;;6220929;28;20045;-69
2021/09/16 16:47:12;;;;;;;19.92;11.90;;;;;;;;;;6215291;28;20053;-69
2021/09/16 16:50:18;;;;;;;22.08;12.60;;;;;;;;;;6219064;28;20050;-71
2021/09/16 16:53:20;;;;;;;23.58;11.50;;;;;;;;;;6219100;28;20046;-69
2021/09/16 16:56:22;;;;;;;16.75;4.10;;;;;;;;;;6209882;28;20061;-66
2021/09/16 16:59:26;;;;;;;13.43;4.03;;;;;;;;;;6214682;28;20061;-68
2021/09/16 17:02:27;;;;;;;23.13;5.13;;;;;;;;;;6202511;28;23921;-64
2021/09/16 17:05:29;;;;;;;35.50;7.00;;;;;;;;;;6199968;28;20097;-75
2021/09/16 17:08:31;;;;;;;19.13;6.78;;;;;;;;;;6204669;28;20387;-74
2021/09/16 17:11:33;;;;;;;22.23;6.70;;;;;;;;;;6200097;28;20052;-74
2021/09/16 17:14:36;;;;;;;79.97;18.95;;;;;;;;;;6206133;28;20046;-73
2021/09/16 17:17:38;;;;;;;72.00;22.98;;;;;;;;;;6196272;28;20053;-73
2021/09/16 17:20:40;;;;;;;82.85;24.70;;;;;;;;;;6191848;28;20052;-73
2021/09/16 17:23:42;;;;;;;65.72;22.42;;;;;;;;;;6200883;28;20514;-73
2021/09/16 17:26:44;;;;;;;94.28;28.23;;;;;;;;;;6204281;28;20533;-73
2021/09/16 17:29:47;;;;;;;;;;;;;;;;;;6221045;28;20533;-73
2021/09/16 17:32:49;;;;;;;;;;;;;;;;;;6195589;28;20382;-72
2021/09/16 17:35:51;;;;;;;;;;;;;;;;;;6196111;28;20017;-73
2021/09/16 17:38:52;;;;;;;;;;;;;;;;;;6209948;28;20010;-73
2021/09/16 17:41:54;;;;;;;;;;;;;;;;;;6201826;28;20057;-72
2021/09/16 17:44:57;;;;;;;;;;;;;;;;;;6211172;28;20017;-72
2021/09/16 17:47:58;;;;;;;;;;;;;;;;;;6190604;28;20014;-71
2021/09/16 17:50:59;;;;;;;;;;;;;;;;;;6190547;28;20096;-72
2021/09/16 17:54:01;;;;;;;;;;;;;;;;;;6210763;28;20104;-72
2021/09/16 17:57:02;;;;;;;;;;;;;;;;;;6192525;28;20060;-73
2021/09/16 18:00:07;;;;;;;;;;;;;;;;;;6206314;28;20017;-74
2021/09/16 18:03:09;;;;;;;;;;;;;;;;;;6199139;28;20025;-72
2021/09/16 18:06:10;;;;;;;;;;;;;;;;;;6206813;28;20018;-73
2021/09/16 18:09:12;;;;;;;;;;;;;;;;;;6211628;28;20021;-73